Terminal Aerodrome Forecast
Issued by NWS

Home | Current Version | Previous Version | Text Only | Print | Product List | Glossary On
Versions: 1 2 3 4 5 6 7 8 9 10 11 12 13 14 15 16 17 18 19 20 21 22 23 24 25 26 27 28
000
FTUS44 KOUN 241346 AAA
TAFHBR
TAF AMD
KHBR 241346Z 2414/2512 18015G23KT P6SM BKN008
     FM241600 19016G25KT P6SM BKN015 BKN030
     FM241800 17016G26KT P6SM BKN030 PROB30 2423/2503 2SM +TSRA BR
      OVC015CB
     FM250300 18015G22KT P6SM OVC020=

USA.gov is the U.S. government's official web portal to all federal, state and local government web resources and services.